Time;durP1;ratioP1;P1;durP2;ratioP2;P2;SDS_P1;SDS_P2;PMS_P1;PMS_P2;Temp;Humidity;BMP_temperature;BMP_pressure;BME280_temperature;BME280_humidity;BME280_pressure;Samples;Min_cycle;Max_cycle;Signal;HPM_P1;HPM_P2
2023/01/30 00:01:28;;;;;;;16.98;9.35;;;;;;;-2.95;100.00;98711.13;4204503;28;20307;-74
2023/01/30 00:03:29;;;;;;;17.08;9.00;;;;;;;-2.93;100.00;98713.53;4204093;28;20492;-74
2023/01/30 00:05:29;;;;;;;15.82;8.80;;;;;;;-2.93;100.00;98703.53;4203395;28;20055;-74
2023/01/30 00:07:29;;;;;;;17.77;8.98;;;;;;;-2.98;100.00;98700.88;4204640;28;20093;-74
2023/01/30 00:09:30;;;;;;;15.30;8.38;;;;;;;-2.92;100.00;98688.88;4204330;28;20074;-74
2023/01/30 00:11:32;;;;;;;16.92;9.32;;;;;;;-2.86;100.00;98692.38;4220770;28;20075;-74
2023/01/30 00:13:32;;;;;;;16.77;8.70;;;;;;;-2.83;100.00;98676.34;4220137;28;20050;-75
2023/01/30 00:15:33;;;;;;;18.50;8.95;;;;;;;-2.83;100.00;98684.47;4213830;28;20040;-74
2023/01/30 00:17:36;;;;;;;17.63;9.73;;;;;;;-2.84;100.00;98677.44;4204731;28;20043;-74
2023/01/30 00:19:37;;;;;;;17.27;9.48;;;;;;;-2.78;100.00;98686.31;4204830;28;20108;-74
2023/01/30 00:21:37;;;;;;;15.70;9.00;;;;;;;-2.72;100.00;98670.84;4204479;28;20076;-74
2023/01/30 00:23:38;;;;;;;17.48;9.27;;;;;;;-2.65;100.00;98671.28;4203626;28;20255;-74
2023/01/30 00:25:38;;;;;;;19.48;8.85;;;;;;;-2.64;100.00;98657.47;4208342;28;20455;-74
2023/01/30 00:27:38;;;;;;;15.80;9.10;;;;;;;-2.69;100.00;98657.53;4220414;28;20055;-74
2023/01/30 00:29:39;;;;;;;16.67;8.77;;;;;;;-2.71;100.00;98632.63;4204836;28;20472;-74
2023/01/30 00:31:39;;;;;;;16.65;8.63;;;;;;;-2.69;100.00;98638.56;4206666;28;20491;-74
2023/01/30 00:33:39;;;;;;;18.00;8.27;;;;;;;-2.71;100.00;98634.53;4205396;28;20677;-74
2023/01/30 00:35:48;;;;;;;15.60;8.10;;;;;;;-2.72;100.00;98622.91;4210967;27;20097;-74
2023/01/30 00:37:48;;;;;;;15.48;8.32;;;;;;;-2.79;100.00;98619.72;4204373;28;20230;-74
2023/01/30 00:39:49;;;;;;;16.77;8.55;;;;;;;-2.82;100.00;98615.66;4214155;28;20377;-74
2023/01/30 00:48:50;;;;;;;;;;;;;;;-2.84;100.00;98608.94;4220684;28;20105;-74
2023/01/30 00:50:50;;;;;;;16.95;8.77;;;;;;;-2.88;100.00;98603.31;4217435;28;20162;-74
2023/01/30 00:52:50;;;;;;;15.55;7.53;;;;;;;-2.83;100.00;98592.41;4202419;28;20571;-74
2023/01/30 00:54:51;;;;;;;13.35;7.47;;;;;;;-2.70;100.00;98579.28;4208087;28;20089;-74
2023/01/30 00:56:51;;;;;;;15.60;7.57;;;;;;;-2.66;100.00;98556.72;4207417;28;20473;-74
2023/01/30 00:58:52;;;;;;;13.85;7.63;;;;;;;-2.62;100.00;98548.84;4210767;28;20055;-74
2023/01/30 01:00:52;;;;;;;13.85;8.23;;;;;;;-2.70;100.00;98539.44;4203443;28;20125;-74
2023/01/30 01:02:52;;;;;;;14.80;8.07;;;;;;;-2.70;100.00;98534.03;4205273;28;20055;-74
2023/01/30 01:04:53;;;;;;;13.63;7.63;;;;;;;-2.69;100.00;98524.81;4219306;28;20036;-74
2023/01/30 01:06:53;;;;;;;16.52;7.75;;;;;;;-2.65;100.00;98525.84;4218554;27;20096;-74
2023/01/30 01:08:53;;;;;;;16.52;7.78;;;;;;;-2.62;100.00;98519.03;4219371;28;20171;-74
2023/01/30 01:10:53;;;;;;;13.93;8.50;;;;;;;-2.66;100.00;98512.59;4215775;27;20629;-74
2023/01/30 01:12:54;;;;;;;12.95;7.22;;;;;;;-2.64;100.00;98507.69;4203246;28;20523;-74
2023/01/30 01:14:54;;;;;;;15.57;8.38;;;;;;;-2.66;100.00;98526.94;4203792;28;20122;-74
2023/01/30 01:16:55;;;;;;;18.40;9.20;;;;;;;-2.65;100.00;98531.28;4214928;28;20427;-74
2023/01/30 01:18:55;;;;;;;17.13;8.60;;;;;;;-2.57;100.00;98524.38;4215261;28;20181;-74
2023/01/30 01:20:55;;;;;;;19.70;8.98;;;;;;;-2.48;100.00;98536.19;4218245;28;20047;-74
2023/01/30 01:23:03;;;;;;;15.43;8.65;;;;;;;-2.40;100.00;98534.72;4199440;27;20393;-73
2023/01/30 01:25:04;;;;;;;17.35;7.97;;;;;;;-2.37;100.00;98524.13;4185111;28;20059;-74
2023/01/30 01:27:04;;;;;;;18.70;9.40;;;;;;;-2.40;100.00;98513.88;4187506;28;20529;-74
2023/01/30 01:29:05;;;;;;;16.08;7.88;;;;;;;-2.39;100.00;98512.78;4185276;28;20043;-73
2023/01/30 01:31:13;;;;;;;15.55;7.80;;;;;;;-2.33;100.00;98489.09;4184426;28;20068;-73
2023/01/30 01:33:14;;;;;;;14.30;7.95;;;;;;;-2.34;100.00;98468.53;4184634;28;20054;-73
2023/01/30 01:35:14;;;;;;;16.52;8.77;;;;;;;-2.25;100.00;98466.75;4183963;28;20071;-73
2023/01/30 01:37:15;;;;;;;15.77;7.80;;;;;;;-2.19;100.00;98467.50;4183256;28;20056;-73
2023/01/30 01:39:15;;;;;;;13.80;7.55;;;;;;;-2.12;100.00;98479.56;4183630;28;20713;-75
2023/01/30 01:41:16;;;;;;;16.67;8.90;;;;;;;-2.02;100.00;98481.31;4183994;28;20543;-75
2023/01/30 01:43:22;;;;;;;16.45;8.63;;;;;;;-1.98;100.00;98499.41;4182729;28;20044;-74
2023/01/30 01:45:23;;;;;;;14.65;8.30;;;;;;;-2.02;100.00;98503.81;4183189;28;20056;-73
2023/01/30 01:47:24;;;;;;;16.35;8.02;;;;;;;-1.93;100.00;98511.28;4183584;28;20156;-73
2023/01/30 01:49:31;;;;;;;16.02;7.93;;;;;;;-1.88;100.00;98503.88;4183967;28;20296;-73
2023/01/30 01:51:39;;;;;;;15.40;7.95;;;;;;;-1.85;100.00;98516.81;4183258;28;20427;-75
2023/01/30 01:53:49;;;;;;;16.33;8.07;;;;;;;-1.85;100.00;98513.31;4185515;28;20492;-75
2023/01/30 01:55:52;;;;;;;15.38;8.63;;;;;;;-1.77;100.00;98509.94;4183448;28;20047;-75
2023/01/30 01:58:08;;;;;;;15.02;7.88;;;;;;;-1.84;100.00;98517.63;4186425;28;20519;-75
2023/01/30 02:00:12;;;;;;;17.10;8.73;;;;;;;-1.74;100.00;98503.91;4184004;28;20048;-75
2023/01/30 02:02:13;;;;;;;18.23;8.27;;;;;;;-1.73;100.00;98511.75;4183575;28;20039;-75
2023/01/30 02:05:00;;;;;;;17.20;8.52;;;;;;;-1.68;100.00;98486.44;4183770;28;20036;-75
2023/01/30 02:06:37;;;;;;;16.80;8.98;;;;;;;-1.65;100.00;98491.28;4185878;28;20041;-74
2023/01/30 02:08:40;;;;;;;15.20;8.50;;;;;;;-1.61;100.00;98496.91;4183379;28;20040;-75
2023/01/30 02:10:50;;;;;;;19.95;9.35;;;;;;;-1.54;100.00;98483.78;4188006;28;20036;-75
2023/01/30 02:12:51;;;;;;;17.35;8.32;;;;;;;-1.47;100.00;98490.41;4182706;28;20495;-75
2023/01/30 02:14:53;;;;;;;15.95;8.38;;;;;;;-1.38;100.00;98503.31;4183078;28;20036;-75
2023/01/30 02:16:53;;;;;;;15.50;8.50;;;;;;;-1.37;100.00;98494.84;4183440;28;20342;-75
2023/01/30 02:18:54;;;;;;;16.30;8.00;;;;;;;-1.30;100.00;98478.97;4183236;28;20041;-75
2023/01/30 02:21:13;;;;;;;16.70;8.25;;;;;;;-1.23;100.00;98470.44;4182853;28;20473;-75
2023/01/30 02:23:32;;;;;;;16.20;7.95;;;;;;;-1.15;100.00;98453.44;4187982;28;20048;-74
2023/01/30 02:25:50;;;;;;;16.65;8.63;;;;;;;-1.14;100.00;98464.00;4182885;28;20052;-75
2023/01/30 02:28:20;;;;;;;15.27;8.27;;;;;;;-1.22;100.00;98445.72;4183136;28;20045;-75
2023/01/30 02:30:20;;;;;;;14.63;7.55;;;;;;;-1.13;100.00;98449.31;4182356;28;20048;-74
2023/01/30 02:32:29;;;;;;;16.50;8.02;;;;;;;-1.17;100.00;98445.59;4182667;28;20053;-75
2023/01/30 02:35:11;;;;;;;16.88;8.40;;;;;;;-1.18;100.00;98438.56;4169898;28;20041;-75
2023/01/30 02:37:32;;;;;;;17.10;8.20;;;;;;;-1.19;100.00;98419.84;4171855;28;20123;-75
2023/01/30 02:39:58;;;;;;;16.05;8.48;;;;;;;-1.22;100.00;98415.03;4171796;28;20073;-75
2023/01/30 02:42:30;;;;;;;14.20;7.57;;;;;;;-1.21;100.00;98395.72;4171474;28;20446;-74
2023/01/30 02:44:49;;;;;;;14.90;7.57;;;;;;;-1.15;100.00;98391.00;4170361;28;20049;-75
2023/01/30 02:46:57;;;;;;;15.32;8.05;;;;;;;-1.19;100.00;98385.38;4173547;28;20304;-75
2023/01/30 02:49:10;;;;;;;13.98;7.00;;;;;;;-1.07;100.00;98386.78;4173304;28;20048;-74
2023/01/30 02:51:17;;;;;;;13.85;7.20;;;;;;;-1.04;100.00;98370.66;4171847;28;20036;-74
2023/01/30 02:53:17;;;;;;;15.02;7.28;;;;;;;-1.06;100.00;98356.59;4171143;28;20140;-74
2023/01/30 02:55:23;;;;;;;15.40;7.35;;;;;;;-1.05;100.00;98360.13;4170778;28;20064;-75
2023/01/30 02:57:26;;;;;;;12.43;7.53;;;;;;;-1.10;100.00;98343.91;4171649;28;20428;-75
2023/01/30 02:59:35;;;;;;;12.00;7.30;;;;;;;-0.97;100.00;98348.53;4171772;28;20124;-75
2023/01/30 03:02:05;;;;;;;17.20;7.53;;;;;;;-0.83;100.00;98341.13;4170837;28;20053;-74
2023/01/30 03:04:17;;;;;;;13.57;7.55;;;;;;;-0.81;100.00;98352.50;4173596;28;20045;-75
2023/01/30 03:06:32;;;;;;;12.67;6.80;;;;;;;-0.64;100.00;98343.69;4172110;28;20728;-75
2023/01/30 03:08:47;;;;;;;12.70;7.82;;;;;;;-0.60;100.00;98337.31;4172191;28;20048;-74
2023/01/30 03:11:08;;;;;;;15.65;7.93;;;;;;;-0.63;100.00;98318.94;4172418;28;20041;-74
2023/01/30 03:13:08;;;;;;;16.42;7.72;;;;;;;-0.69;100.00;98330.22;4170840;28;20429;-75
2023/01/30 03:15:16;;;;;;;13.05;7.15;;;;;;;-0.75;100.00;98323.28;4171576;28;20041;-74
2023/01/30 03:17:19;;;;;;;13.93;7.35;;;;;;;-0.79;100.00;98325.84;4170588;28;20116;-75
2023/01/30 03:19:20;;;;;;;16.95;7.80;;;;;;;-0.79;100.00;98314.16;4170609;28;20497;-74
2023/01/30 03:21:20;;;;;;;14.20;7.78;;;;;;;-0.76;100.00;98308.91;4171332;28;20060;-74
2023/01/30 03:23:21;;;;;;;15.52;7.93;;;;;;;-0.68;100.00;98299.22;4170403;28;20048;-75
2023/01/30 03:25:25;;;;;;;14.63;7.78;;;;;;;-0.67;100.00;98298.91;4170654;28;20045;-75
2023/01/30 03:27:26;;;;;;;18.02;8.82;;;;;;;-0.64;100.00;98302.94;4170931;28;20049;-74
2023/01/30 03:29:26;;;;;;;14.38;7.50;;;;;;;-0.63;100.00;98291.75;4171450;28;20418;-75
2023/01/30 03:31:26;;;;;;;15.43;8.27;;;;;;;-0.65;100.00;98298.63;4170806;28;20051;-74
2023/01/30 03:33:27;;;;;;;17.60;7.53;;;;;;;-0.65;100.00;98302.16;4170078;28;20485;-75
2023/01/30 03:35:28;;;;;;;16.63;8.20;;;;;;;-0.66;100.00;98310.59;4172406;28;20617;-75
2023/01/30 03:37:29;;;;;;;17.70;7.65;;;;;;;-0.69;100.00;98314.72;4174056;28;20167;-75
2023/01/30 03:39:29;;;;;;;16.40;8.32;;;;;;;-0.71;100.00;98294.41;4170591;28;20349;-74
2023/01/30 03:41:30;;;;;;;13.25;8.38;;;;;;;-0.64;100.00;98294.78;4170694;28;20048;-75
2023/01/30 03:43:30;;;;;;;16.27;8.65;;;;;;;-0.60;100.00;98288.41;4170571;28;20057;-75
2023/01/30 03:45:31;;;;;;;15.45;8.30;;;;;;;-0.64;100.00;98297.50;4169612;28;20382;-75
2023/01/30 03:47:31;;;;;;;18.90;8.85;;;;;;;-0.66;100.00;98284.25;4174334;28;20485;-75
2023/01/30 03:49:31;;;;;;;13.50;7.63;;;;;;;-0.67;100.00;98285.31;4170913;28;20136;-74
2023/01/30 03:51:32;;;;;;;15.50;8.20;;;;;;;-0.52;100.00;98286.88;4171011;28;20071;-75
2023/01/30 03:53:32;;;;;;;14.48;8.40;;;;;;;-0.49;100.00;98290.91;4169735;28;20129;-75
2023/01/30 03:55:32;;;;;;;18.25;9.02;;;;;;;-0.60;100.00;98277.53;4170798;28;20124;-75
2023/01/30 03:57:33;;;;;;;15.23;8.80;;;;;;;-0.52;100.00;98284.16;4170513;28;20049;-75
2023/01/30 03:59:33;;;;;;;14.80;8.65;;;;;;;-0.53;100.00;98279.03;4170489;28;20041;-75
2023/01/30 04:01:33;;;;;;;14.63;8.00;;;;;;;-0.57;100.00;98293.25;4171679;28;20469;-75
2023/01/30 04:03:34;;;;;;;16.15;8.95;;;;;;;-0.52;100.00;98295.03;4171298;28;20046;-75
2023/01/30 04:05:34;;;;;;;15.57;8.00;;;;;;;-0.48;100.00;98298.75;4166253;28;20580;-75
2023/01/30 04:07:34;;;;;;;14.10;8.25;;;;;;;-0.53;100.00;98285.25;4170407;28;20049;-75
2023/01/30 04:09:35;;;;;;;15.85;8.63;;;;;;;-0.55;100.00;98268.47;4175548;28;20123;-75
2023/01/30 04:11:35;;;;;;;18.08;8.77;;;;;;;-0.51;100.00;98274.06;4173942;28;20053;-75
2023/01/30 04:13:35;;;;;;;16.13;8.25;;;;;;;-0.51;100.00;98266.72;4175308;28;20049;-75
2023/01/30 04:15:36;;;;;;;18.83;8.43;;;;;;;-0.48;100.00;98268.84;4172528;28;20069;-75
2023/01/30 04:17:36;;;;;;;13.95;7.50;;;;;;;-0.43;100.00;98268.69;4170630;28;20434;-75
2023/01/30 04:19:36;;;;;;;15.30;8.52;;;;;;;-0.40;100.00;98253.69;4170588;28;20049;-75
2023/01/30 04:21:37;;;;;;;14.55;8.30;;;;;;;-0.33;100.00;98256.78;4172941;28;20098;-76
2023/01/30 04:23:38;;;;;;;16.85;8.30;;;;;;;-0.31;100.00;98270.84;4173004;28;20044;-75
2023/01/30 04:25:38;;;;;;;14.07;7.63;;;;;;;-0.35;100.00;98265.22;4172410;28;20033;-75
2023/01/30 04:27:38;;;;;;;16.85;8.70;;;;;;;-0.31;100.00;98268.13;4171558;28;20041;-76
2023/01/30 04:29:39;;;;;;;16.55;8.20;;;;;;;-0.36;100.00;98276.41;4172686;28;20051;-76
2023/01/30 04:31:39;;;;;;;15.07;7.78;;;;;;;-0.30;100.00;98277.91;4174662;28;20091;-75
2023/01/30 04:33:40;;;;;;;16.40;9.45;;;;;;;-0.35;100.00;98276.09;4173946;28;20041;-75
2023/01/30 04:35:49;;;;;;;13.35;7.78;;;;;;;-0.30;100.00;98281.41;4170768;28;20457;-75
2023/01/30 04:37:49;;;;;;;14.40;7.60;;;;;;;-0.32;100.00;98274.69;4175660;28;20044;-75
2023/01/30 04:39:50;;;;;;;13.77;7.05;;;;;;;-0.26;100.00;98267.97;4170335;28;20041;-75
2023/01/30 04:41:50;;;;;;;13.05;7.32;;;;;;;-0.22;100.00;98260.03;4174421;28;20136;-75
2023/01/30 04:43:50;;;;;;;15.18;7.55;;;;;;;-0.21;100.00;98248.03;4171317;28;20064;-75
2023/01/30 04:45:51;;;;;;;10.65;6.00;;;;;;;-0.26;100.00;98242.72;4172897;28;20372;-75
2023/01/30 04:47:51;;;;;;;10.75;6.30;;;;;;;-0.29;100.00;98244.94;4172215;28;20095;-75
2023/01/30 04:49:52;;;;;;;10.27;6.75;;;;;;;-0.18;100.00;98245.47;4174081;28;20076;-75
2023/01/30 04:51:52;;;;;;;12.38;6.85;;;;;;;-0.24;100.00;98238.59;4169727;28;20527;-76
2023/01/30 04:53:53;;;;;;;10.75;6.53;;;;;;;-0.10;100.00;98238.47;4170509;28;20120;-76
2023/01/30 04:55:54;;;;;;;11.23;6.40;;;;;;;-0.12;100.00;98246.94;4172205;28;20072;-76
2023/01/30 04:57:54;;;;;;;10.57;6.18;;;;;;;-0.11;100.00;98239.59;4174011;28;20064;-75
2023/01/30 04:59:55;;;;;;;13.07;6.40;;;;;;;-0.05;100.00;98236.41;4170323;28;20057;-75
2023/01/30 05:01:55;;;;;;;13.60;6.38;;;;;;;-0.07;100.00;98248.75;4170698;28;20069;-76
2023/01/30 05:03:56;;;;;;;12.82;7.43;;;;;;;-0.10;100.00;98233.84;4171669;28;20025;-76
2023/01/30 05:05:56;;;;;;;12.18;6.38;;;;;;;-0.14;100.00;98223.91;4174332;28;20037;-76
2023/01/30 05:07:56;;;;;;;13.38;6.60;;;;;;;-0.25;100.00;98215.22;4168760;28;20060;-76
2023/01/30 05:09:56;;;;;;;14.85;9.07;;;;;;;-0.09;100.00;98212.88;4169621;28;20095;-76
2023/01/30 05:11:57;;;;;;;12.23;7.75;;;;;;;-0.04;100.00;98215.47;4173343;28;20447;-76
2023/01/30 05:13:58;;;;;;;13.00;7.15;;;;;;;-0.04;100.00;98204.59;4171494;28;20060;-76
2023/01/30 05:15:58;;;;;;;14.13;7.28;;;;;;;-0.06;100.00;98206.81;4170500;28;20409;-76
2023/01/30 05:17:59;;;;;;;12.07;6.97;;;;;;;-0.09;100.00;98175.59;4169790;28;20221;-76
2023/01/30 05:19:59;;;;;;;12.85;7.07;;;;;;;-0.14;100.00;98189.34;4169655;28;20041;-76
2023/01/30 05:21:59;;;;;;;11.10;6.57;;;;;;;-0.13;100.00;98185.53;4169374;28;20076;-76
2023/01/30 05:24:00;;;;;;;11.68;7.07;;;;;;;-0.09;100.00;98166.63;4169258;28;20067;-76
2023/01/30 05:26:01;;;;;;;13.23;7.10;;;;;;;-0.03;100.00;98170.81;4172956;28;20059;-76
2023/01/30 05:28:01;;;;;;;11.55;6.90;;;;;;;-0.03;100.00;98152.59;4173293;28;20298;-76
2023/01/30 05:30:02;;;;;;;11.60;6.45;;;;;;;0.01;100.00;98157.41;4170120;28;20450;-76
2023/01/30 05:32:03;;;;;;;10.68;5.95;;;;;;;0.05;100.00;98150.22;4169435;28;20073;-75
2023/01/30 05:34:03;;;;;;;13.07;7.43;;;;;;;0.02;100.00;98137.25;4168808;28;20049;-75
2023/01/30 05:36:04;;;;;;;10.18;5.70;;;;;;;0.10;100.00;98139.19;4169366;28;20453;-76
2023/01/30 05:38:04;;;;;;;11.23;6.43;;;;;;;0.13;100.00;98143.97;4169773;28;20043;-76
2023/01/30 05:40:06;;;;;;;11.57;6.53;;;;;;;0.06;100.00;98138.22;4169445;28;20445;-76
2023/01/30 05:42:06;;;;;;;11.18;5.85;;;;;;;0.09;100.00;98124.00;4172380;28;20033;-76
2023/01/30 05:44:06;;;;;;;10.30;6.00;;;;;;;0.17;100.00;98123.19;4173537;28;20026;-76
2023/01/30 05:46:10;;;;;;;10.13;5.68;;;;;;;0.14;100.00;98127.34;4175177;28;20147;-76
2023/01/30 05:48:10;;;;;;;10.07;6.32;;;;;;;0.16;100.00;98127.81;4169692;28;20477;-76
2023/01/30 05:50:11;;;;;;;11.57;6.32;;;;;;;0.23;100.00;98136.31;4174188;28;20079;-76
2023/01/30 05:52:11;;;;;;;10.43;5.90;;;;;;;0.30;100.00;98124.16;4171422;28;20041;-76
2023/01/30 05:54:11;;;;;;;10.27;6.10;;;;;;;0.23;100.00;98111.03;4168651;28;20032;-76
2023/01/30 05:56:12;;;;;;;9.70;5.95;;;;;;;0.25;100.00;98125.94;4117146;28;20065;-77
2023/01/30 05:58:12;;;;;;;10.27;5.82;;;;;;;0.35;100.00;98105.75;4175843;28;20067;-76
2023/01/30 06:00:13;;;;;;;9.95;5.18;;;;;;;0.37;100.00;98078.22;4170835;28;20031;-76
2023/01/30 06:02:14;;;;;;;7.72;4.63;;;;;;;0.34;100.00;98078.88;4171270;28;20744;-76
2023/01/30 06:04:14;;;;;;;8.23;4.88;;;;;;;0.31;100.00;98090.38;4167573;28;20027;-76
2023/01/30 06:06:15;;;;;;;7.00;5.07;;;;;;;0.32;100.00;98081.88;4168752;28;20036;-76
2023/01/30 06:08:18;;;;;;;6.85;3.80;;;;;;;0.39;100.00;98081.41;4171022;28;20411;-76
2023/01/30 06:10:18;;;;;;;6.85;4.10;;;;;;;0.36;100.00;98085.59;4169858;28;20138;-76
2023/01/30 06:12:19;;;;;;;7.25;4.45;;;;;;;0.33;100.00;98088.13;4172957;28;20076;-76
2023/01/30 06:14:19;;;;;;;7.38;4.45;;;;;;;0.31;100.00;98071.31;4177315;28;20190;-76
2023/01/30 06:16:19;;;;;;;6.35;3.83;;;;;;;0.31;100.00;98091.19;4172086;28;20024;-76
2023/01/30 06:18:20;;;;;;;6.47;3.90;;;;;;;0.37;100.00;98106.22;4176513;28;20028;-76
2023/01/30 06:20:20;;;;;;;7.65;4.28;;;;;;;0.38;100.00;98088.78;4171688;28;20198;-75
2023/01/30 06:22:21;;;;;;;7.30;4.68;;;;;;;0.42;100.00;98102.56;4171987;28;20426;-76
2023/01/30 06:24:21;;;;;;;6.40;4.18;;;;;;;0.43;100.00;98104.97;4177244;28;20327;-76
2023/01/30 06:26:21;;;;;;;6.25;3.70;;;;;;;0.49;100.00;98111.81;4171870;28;20087;-76
2023/01/30 06:28:23;;;;;;;8.30;4.57;;;;;;;0.48;100.00;98115.66;4171398;28;20114;-76
2023/01/30 06:30:24;;;;;;;7.85;4.50;;;;;;;0.42;100.00;98130.56;4177139;28;20517;-76
2023/01/30 06:32:24;;;;;;;6.88;4.25;;;;;;;0.46;100.00;98112.47;4176009;28;20040;-76
2023/01/30 06:34:25;;;;;;;8.18;4.70;;;;;;;0.43;100.00;98115.03;4170076;28;20037;-76
2023/01/30 06:36:25;;;;;;;7.20;4.55;;;;;;;0.41;100.00;98109.91;4173172;28;20136;-75
2023/01/30 06:38:25;;;;;;;5.90;4.15;;;;;;;0.53;100.00;98109.28;4171326;28;20095;-76
2023/01/30 06:40:25;;;;;;;11.75;6.05;;;;;;;0.56;100.00;98100.44;4173699;28;20057;-75
2023/01/30 06:42:26;;;;;;;6.53;4.32;;;;;;;0.59;100.00;98093.59;4175587;28;20045;-76
2023/01/30 06:44:26;;;;;;;8.63;4.50;;;;;;;0.50;100.00;98105.28;4170313;28;20093;-75
2023/01/30 06:46:26;;;;;;;7.60;4.65;;;;;;;0.51;100.00;98119.69;4171880;28;20061;-76
2023/01/30 06:48:27;;;;;;;7.25;4.40;;;;;;;0.48;100.00;98107.50;4171996;28;20077;-76
2023/01/30 06:50:29;;;;;;;9.05;4.47;;;;;;;0.46;100.00;98136.97;4171512;28;20397;-75
2023/01/30 06:52:29;;;;;;;6.57;4.50;;;;;;;0.48;100.00;98120.31;4170802;28;20044;-76
2023/01/30 06:54:29;;;;;;;7.32;4.45;;;;;;;0.47;100.00;98122.22;4172019;28;20606;-76
2023/01/30 06:56:29;;;;;;;8.00;4.53;;;;;;;0.45;100.00;98121.75;4171460;28;20041;-75
2023/01/30 06:58:30;;;;;;;7.55;4.13;;;;;;;0.52;100.00;98108.47;4171733;28;20087;-75
2023/01/30 07:00:31;;;;;;;7.63;4.60;;;;;;;0.50;100.00;98115.38;4172160;28;20041;-75
2023/01/30 07:02:34;;;;;;;7.57;4.65;;;;;;;0.49;100.00;98106.38;4170688;28;20040;-75
2023/01/30 07:04:34;;;;;;;7.65;5.05;;;;;;;0.49;100.00;98097.41;4171587;28;20045;-75
2023/01/30 07:06:34;;;;;;;7.50;4.93;;;;;;;0.53;100.00;98096.47;4171308;28;20126;-76
2023/01/30 07:08:35;;;;;;;8.15;4.82;;;;;;;0.57;100.00;98113.75;4171911;28;20073;-75
2023/01/30 07:10:35;;;;;;;7.13;4.60;;;;;;;0.48;100.00;98114.88;4170815;28;20200;-75
2023/01/30 07:12:36;;;;;;;7.55;4.43;;;;;;;0.54;100.00;98125.28;4170664;28;20049;-75
2023/01/30 07:14:37;;;;;;;8.10;5.05;;;;;;;0.60;100.00;98106.88;4171537;28;20158;-75
2023/01/30 07:16:37;;;;;;;7.80;4.43;;;;;;;0.59;100.00;98102.56;4170747;28;20055;-75
2023/01/30 07:18:37;;;;;;;8.15;4.50;;;;;;;0.57;100.00;98105.56;4171459;28;20159;-75
2023/01/30 07:20:38;;;;;;;7.25;3.80;;;;;;;0.57;100.00;98102.06;4169578;28;20373;-75
2023/01/30 07:22:38;;;;;;;6.00;3.50;;;;;;;0.59;100.00;98120.81;4170474;28;20547;-75
2023/01/30 07:24:38;;;;;;;7.43;4.05;;;;;;;0.59;100.00;98120.81;4175305;28;20040;-75
2023/01/30 07:26:39;;;;;;;5.40;3.28;;;;;;;0.61;100.00;98121.28;4170761;28;20132;-75
2023/01/30 07:28:39;;;;;;;5.53;3.70;;;;;;;0.59;100.00;98123.53;4171104;28;20041;-75
2023/01/30 07:30:39;;;;;;;4.90;3.40;;;;;;;0.72;100.00;98122.53;4171144;28;20041;-75
2023/01/30 07:32:40;;;;;;;4.13;2.90;;;;;;;0.72;100.00;98112.44;4174578;28;20052;-75
2023/01/30 07:34:40;;;;;;;6.97;3.40;;;;;;;0.67;100.00;98125.44;4171065;28;20340;-75
2023/01/30 07:36:41;;;;;;;5.00;2.85;;;;;;;0.69;100.00;98117.75;4170933;28;20099;-75
2023/01/30 07:38:41;;;;;;;5.85;3.10;;;;;;;0.68;100.00;98110.72;4170822;28;20045;-75
2023/01/30 07:40:41;;;;;;;5.72;2.85;;;;;;;0.66;100.00;98113.72;4170698;28;20489;-75
2023/01/30 07:42:42;;;;;;;4.35;2.80;;;;;;;0.67;100.00;98106.38;4170186;28;20128;-75
2023/01/30 07:44:42;;;;;;;4.65;2.60;;;;;;;0.66;100.00;98118.38;4170947;28;20072;-75
2023/01/30 07:46:42;;;;;;;4.20;2.58;;;;;;;0.70;100.00;98114.69;4172641;28;20124;-75
2023/01/30 07:48:44;;;;;;;5.07;2.80;;;;;;;0.71;100.00;98120.94;4172569;28;20087;-75
2023/01/30 07:50:45;;;;;;;5.78;2.70;;;;;;;0.70;100.00;98124.78;4170422;28;20076;-75
2023/01/30 07:52:45;;;;;;;5.68;3.25;;;;;;;0.69;100.00;98140.34;4169966;28;20183;-76
2023/01/30 07:54:45;;;;;;;6.57;3.75;;;;;;;0.74;100.00;98125.75;4170793;28;20048;-75
2023/01/30 07:56:46;;;;;;;8.95;4.55;;;;;;;0.80;100.00;98124.47;4170629;28;20056;-75
2023/01/30 07:58:47;;;;;;;5.88;3.00;;;;;;;0.80;100.00;98113.56;4170731;28;20315;-75
2023/01/30 08:00:47;;;;;;;6.15;3.38;;;;;;;0.84;100.00;98118.06;4170752;28;20083;-75
2023/01/30 08:02:47;;;;;;;4.68;2.83;;;;;;;0.84;100.00;98123.50;4172536;28;20463;-75
2023/01/30 08:04:48;;;;;;;4.72;2.85;;;;;;;0.82;100.00;98123.00;4170254;28;20469;-75
2023/01/30 08:06:48;;;;;;;4.95;2.97;;;;;;;0.91;100.00;98101.22;4176118;28;20080;-75
2023/01/30 08:08:48;;;;;;;4.70;3.10;;;;;;;0.98;100.00;98114.31;4170317;28;20067;-75
2023/01/30 08:10:49;;;;;;;7.50;3.92;;;;;;;0.97;100.00;98112.72;4170223;28;20052;-76
2023/01/30 08:12:50;;;;;;;4.93;3.13;;;;;;;1.02;100.00;98105.19;4169817;28;20040;-75
2023/01/30 08:14:50;;;;;;;5.55;3.20;;;;;;;1.00;100.00;98102.00;4170443;28;20052;-75
2023/01/30 08:16:51;;;;;;;6.35;4.03;;;;;;;0.96;100.00;98103.75;4170175;28;20175;-75
2023/01/30 08:18:51;;;;;;;6.25;3.85;;;;;;;1.04;100.00;98088.53;4170245;28;20082;-75
2023/01/30 08:20:56;;;;;;;4.38;3.25;;;;;;;1.01;100.00;98102.81;4170720;28;20083;-75
2023/01/30 08:22:58;;;;;;;6.47;3.20;;;;;;;0.96;100.00;98105.69;4169147;28;20500;-75
2023/01/30 08:24:58;;;;;;;5.38;3.55;;;;;;;1.02;100.00;98124.28;4176031;28;20799;-75
2023/01/30 08:26:59;;;;;;;5.85;3.90;;;;;;;1.08;100.00;98130.34;4177282;28;20055;-75
2023/01/30 08:28:59;;;;;;;8.32;5.10;;;;;;;1.06;100.00;98138.81;4176183;28;20075;-75
2023/01/30 08:30:59;;;;;;;6.70;4.57;;;;;;;1.07;100.00;98120.56;4169931;28;20074;-75
2023/01/30 08:33:00;;;;;;;5.95;4.55;;;;;;;1.13;100.00;98122.78;4169650;28;20286;-75
2023/01/30 08:35:00;;;;;;;7.90;4.20;;;;;;;1.18;100.00;98130.00;4173850;28;20044;-75
2023/01/30 08:37:01;;;;;;;5.95;3.83;;;;;;;1.20;100.00;98119.56;4170092;28;20138;-74
2023/01/30 08:39:02;;;;;;;6.43;3.72;;;;;;;1.19;100.00;98117.19;4169698;28;20056;-75
2023/01/30 08:41:07;;;;;;;6.32;3.97;;;;;;;1.17;100.00;98128.41;4169851;28;20037;-75
2023/01/30 08:43:07;;;;;;;7.28;3.80;;;;;;;1.08;100.00;98114.81;4174475;28;20033;-75
2023/01/30 08:45:08;;;;;;;6.90;3.67;;;;;;;1.07;100.00;98120.56;4170118;28;20091;-75
2023/01/30 08:47:08;;;;;;;8.75;4.63;;;;;;;1.06;100.00;98124.41;4169906;28;20532;-75
2023/01/30 08:49:09;;;;;;;6.18;4.10;;;;;;;1.03;100.00;98128.59;4169795;28;20120;-75
2023/01/30 08:51:10;;;;;;;7.45;4.50;;;;;;;1.02;100.00;98132.44;4170040;28;20057;-75
2023/01/30 08:53:10;;;;;;;7.07;4.53;;;;;;;0.99;100.00;98133.06;4168518;28;20294;-75
2023/01/30 08:55:10;;;;;;;5.40;3.78;;;;;;;1.02;100.00;98129.72;4169690;28;20481;-75
2023/01/30 08:57:13;;;;;;;5.18;3.92;;;;;;;1.04;100.00;98124.75;4175693;28;20103;-75
2023/01/30 08:59:13;;;;;;;7.63;4.50;;;;;;;1.05;100.00;98123.59;4169760;28;20040;-75
2023/01/30 09:01:14;;;;;;;6.15;4.00;;;;;;;0.98;100.00;98095.25;4169633;28;20041;-75
2023/01/30 09:03:17;;;;;;;6.88;4.13;;;;;;;1.08;100.00;98109.34;4175392;28;20444;-74
2023/01/30 09:05:17;;;;;;;6.55;4.38;;;;;;;1.15;100.00;98116.22;4173179;28;20119;-74
2023/01/30 09:07:18;;;;;;;7.38;4.30;;;;;;;1.17;100.00;98101.16;4169669;28;20398;-74
2023/01/30 09:09:18;;;;;;;5.50;3.72;;;;;;;1.29;100.00;98114.09;4175279;28;20048;-74
2023/01/30 09:11:19;;;;;;;6.55;3.80;;;;;;;1.31;100.00;98095.47;4169591;28;20130;-74
2023/01/30 09:13:19;;;;;;;5.63;3.42;;;;;;;1.38;100.00;98093.84;4169052;28;20053;-74
2023/01/30 09:15:19;;;;;;;7.28;4.57;;;;;;;1.38;100.00;98101.22;4172901;28;20476;-75
2023/01/30 09:17:20;;;;;;;6.03;3.92;;;;;;;1.50;100.00;98084.19;4169413;28;20152;-74
2023/01/30 09:19:25;;;;;;;7.55;3.60;;;;;;;1.60;100.00;98079.16;4169227;28;20107;-74
2023/01/30 09:21:26;;;;;;;4.25;3.03;;;;;;;1.69;100.00;98087.31;4169247;28;20052;-74
2023/01/30 09:23:26;;;;;;;5.28;3.75;;;;;;;1.83;100.00;98078.88;4169029;28;20041;-74
2023/01/30 09:25:26;;;;;;;6.10;3.05;;;;;;;1.83;100.00;98085.13;4169607;28;20049;-74
2023/01/30 09:27:27;;;;;;;5.18;3.42;;;;;;;1.69;100.00;98099.00;4171785;28;20485;-74
2023/01/30 09:29:28;;;;;;;5.25;3.50;;;;;;;1.71;100.00;98082.31;4169473;28;20175;-74
2023/01/30 09:31:28;;;;;;;6.20;3.72;;;;;;;1.70;100.00;98077.97;4169462;28;20182;-74
2023/01/30 09:33:29;;;;;;;5.43;3.33;;;;;;;1.71;100.00;98090.50;4168748;28;20045;-75
2023/01/30 09:35:29;;;;;;;5.60;3.20;;;;;;;1.66;100.00;98077.06;4169984;28;20045;-74